Time;durP1;ratioP1;P1;durP2;ratioP2;P2;SDS_P1;SDS_P2;PMS_P1;PMS_P2;Temp;Humidity;BMP_temperature;BMP_pressure;BME280_temperature;BME280_humidity;BME280_pressure;Samples;Min_cycle;Max_cycle;Signal;HPM_P1;HPM_P2
2023/08/27 00:03:19;;;;;;;1.98;0.52;;;;;;;22.73;47.94;100915.31;16106796;19;129377;-60
2023/08/27 00:08:42;;;;;;;9.85;1.10;;;;;;;22.73;47.67;100906.09;16105693;19;130201;-61
2023/08/27 00:14:03;;;;;;;2.55;0.85;;;;;;;22.72;47.52;100896.06;16112317;19;130245;-61
2023/08/27 00:19:26;;;;;;;5.18;0.75;;;;;;;22.70;48.13;100887.97;16108476;19;130635;-61
2023/08/27 00:24:48;;;;;;;3.80;0.70;;;;;;;22.69;47.76;100869.56;16109875;19;129597;-61
2023/08/27 00:30:10;;;;;;;3.92;0.80;;;;;;;22.68;47.94;100894.94;16110125;19;131006;-61
2023/08/27 00:35:32;;;;;;;2.35;0.60;;;;;;;22.68;47.85;100894.94;16100793;19;130731;-61
2023/08/27 00:40:54;;;;;;;4.22;0.68;;;;;;;22.67;47.90;100882.13;16103007;19;129904;-61
2023/08/27 00:46:16;;;;;;;2.85;0.63;;;;;;;22.67;48.30;100882.13;16112124;19;130478;-61
2023/08/27 00:51:38;;;;;;;2.58;0.75;;;;;;;22.65;47.77;100871.22;16103762;19;131684;-61
2023/08/27 00:57:03;;;;;;;3.22;0.70;;;;;;;22.65;47.71;100867.59;16107759;19;131313;-61
2023/08/27 01:02:25;;;;;;;2.55;0.60;;;;;;;22.63;47.64;100867.03;16103491;19;131326;-61
2023/08/27 01:08:01;;;;;;;3.92;0.93;;;;;;;22.64;48.18;100872.34;16099978;19;131543;-61
2023/08/27 01:13:38;;;;;;;2.07;0.50;;;;;;;22.62;48.01;100866.22;16104828;19;130803;-61
2023/08/27 01:19:01;;;;;;;2.25;0.82;;;;;;;22.60;47.79;100874.00;16100152;19;134904;-60
2023/08/27 01:24:23;;;;;;;2.00;0.60;;;;;;;22.60;47.79;100860.06;16106618;19;131088;-59
2023/08/27 01:30:00;;;;;;;1.10;0.50;;;;;;;22.58;48.05;100868.72;16101389;19;130920;-59
2023/08/27 01:35:22;;;;;;;2.10;0.60;;;;;;;22.58;47.90;100865.06;16110437;19;129693;-58
2023/08/27 01:40:44;;;;;;;1.33;0.68;;;;;;;22.58;48.02;100856.72;16099974;19;130641;-60
2023/08/27 01:46:06;;;;;;;2.28;0.70;;;;;;;22.56;48.20;100842.22;16111183;19;131682;-60
2023/08/27 01:51:28;;;;;;;3.08;0.60;;;;;;;22.55;48.17;100834.94;16117229;19;129748;-60
2023/08/27 01:56:50;;;;;;;2.92;0.60;;;;;;;22.55;48.13;100832.16;16116834;19;129738;-60
2023/08/27 02:02:15;;;;;;;1.33;0.50;;;;;;;22.54;47.78;100828.56;16115434;19;130933;-60
2023/08/27 02:07:39;;;;;;;3.83;0.88;;;;;;;22.53;48.17;100820.44;16119041;19;129143;-59
2023/08/27 02:13:01;;;;;;;0.88;0.40;;;;;;;22.53;47.90;100831.59;16120808;19;129833;-60
2023/08/27 02:18:23;;;;;;;2.05;0.70;;;;;;;22.52;48.22;100833.56;16118259;19;130251;-60
2023/08/27 02:23:45;;;;;;;2.50;0.60;;;;;;;22.52;48.22;100843.88;16119302;19;131334;-60
2023/08/27 02:29:07;;;;;;;1.85;0.40;;;;;;;22.51;48.16;100839.44;16118376;19;131547;-60
2023/08/27 02:34:29;;;;;;;1.65;0.60;;;;;;;22.49;48.24;100831.31;16119396;19;129872;-60
2023/08/27 02:39:51;;;;;;;1.10;0.57;;;;;;;22.50;48.20;100830.22;16116065;19;129822;-60
2023/08/27 02:45:13;;;;;;;0.68;0.40;;;;;;;22.49;48.23;100830.50;16118160;19;131382;-60
2023/08/27 02:50:35;;;;;;;1.33;0.52;;;;;;;22.48;47.95;100823.25;16119630;19;130167;-59
2023/08/27 02:55:57;;;;;;;1.23;0.30;;;;;;;22.48;48.35;100800.94;16115891;19;129545;-60
2023/08/27 03:01:22;;;;;;;1.25;0.60;;;;;;;22.48;47.95;100807.34;16119861;19;129393;-59
2023/08/27 03:06:44;;;;;;;1.38;0.30;;;;;;;22.46;48.11;100815.16;16115113;19;131549;-60
2023/08/27 03:12:06;;;;;;;1.75;0.55;;;;;;;22.45;48.24;100816.28;16113660;19;130911;-60
2023/08/27 03:17:28;;;;;;;1.45;0.40;;;;;;;22.44;48.37;100818.22;16120467;19;129993;-60
2023/08/27 03:22:50;;;;;;;0.40;0.30;;;;;;;22.44;48.06;100800.66;16115440;19;130354;-70
2023/08/27 03:28:12;;;;;;;1.15;0.40;;;;;;;22.43;48.34;100797.03;16108766;19;130782;-65
2023/08/27 03:33:34;;;;;;;1.90;0.40;;;;;;;22.43;48.46;100802.59;16117266;19;130417;-67
2023/08/27 03:38:57;;;;;;;2.72;0.55;;;;;;;22.42;48.32;100798.13;16118409;19;130811;-66
2023/08/27 03:44:18;;;;;;;0.95;0.60;;;;;;;22.42;48.26;100803.69;16113224;19;130097;-60
2023/08/27 03:49:40;;;;;;;0.60;0.30;;;;;;;22.40;48.05;100797.56;16119217;19;130341;-60
2023/08/27 03:55:02;;;;;;;0.90;0.30;;;;;;;22.40;48.26;100794.78;16115539;19;131364;-60
2023/08/27 04:00:25;;;;;;;2.22;0.40;;;;;;;22.39;48.12;100809.84;16113700;19;130069;-60
2023/08/27 04:05:50;;;;;;;0.55;0.30;;;;;;;22.40;48.37;100805.94;16116800;19;130326;-60
2023/08/27 04:11:12;;;;;;;2.30;0.47;;;;;;;22.38;48.14;100802.59;16112079;19;130464;-64
2023/08/27 04:16:34;;;;;;;1.08;0.45;;;;;;;22.36;48.39;100815.97;16117348;19;129659;-61
2023/08/27 04:21:56;;;;;;;1.02;0.40;;;;;;;22.36;48.41;100815.97;16112981;19;129416;-59
2023/08/27 04:27:18;;;;;;;0.98;0.38;;;;;;;22.35;48.18;100825.44;16116360;19;131074;-61
2023/08/27 04:32:40;;;;;;;0.60;0.30;;;;;;;22.35;48.32;100813.44;16110831;19;133040;-60
2023/08/27 04:38:05;;;;;;;1.23;0.40;;;;;;;22.34;48.33;100801.47;16113898;19;131116;-60
2023/08/27 04:43:27;;;;;;;0.93;0.30;;;;;;;22.34;48.48;100801.47;16109793;19;129851;-60
2023/08/27 04:48:49;;;;;;;1.60;0.30;;;;;;;22.34;48.06;100811.78;16114101;19;129248;-60
2023/08/27 04:54:11;;;;;;;0.45;0.30;;;;;;;22.33;48.33;100810.94;16107945;19;129677;-60
2023/08/27 04:59:34;;;;;;;0.77;0.30;;;;;;;22.31;48.45;100818.72;16104262;19;130506;-60
2023/08/27 05:04:56;;;;;;;0.28;0.20;;;;;;;22.31;48.13;100827.09;16098992;19;129549;-60
2023/08/27 05:10:18;;;;;;;2.25;0.38;;;;;;;22.31;48.55;100827.09;16092904;19;132028;-60
2023/08/27 05:15:39;;;;;;;0.70;0.25;;;;;;;22.31;48.61;100823.47;16098378;19;130570;-60
2023/08/27 05:21:02;;;;;;;0.55;0.22;;;;;;;22.28;48.48;100828.47;16103098;19;131016;-60
2023/08/27 05:26:24;;;;;;;1.08;0.40;;;;;;;22.29;48.65;100826.53;16099512;19;130495;-60
2023/08/27 05:31:46;;;;;;;0.65;0.40;;;;;;;22.28;48.44;100831.28;16102750;19;131082;-63
2023/08/27 05:37:08;;;;;;;0.38;0.28;;;;;;;22.27;48.10;100828.78;16107057;19;131229;-60
2023/08/27 05:42:30;;;;;;;0.77;0.20;;;;;;;22.27;48.11;100825.97;16108219;19;129895;-61
2023/08/27 05:47:52;;;;;;;0.38;0.30;;;;;;;22.27;48.60;100828.78;16104778;19;129835;-62
2023/08/27 05:53:17;;;;;;;1.65;0.50;;;;;;;22.26;48.15;100821.53;16103659;19;129634;-61
2023/08/27 05:58:39;;;;;;;0.70;0.30;;;;;;;22.26;48.53;100822.34;16103088;19;131224;-60
2023/08/27 06:04:01;;;;;;;1.35;0.30;;;;;;;22.25;48.38;100805.91;16106765;19;129284;-60
2023/08/27 06:09:23;;;;;;;0.30;0.30;;;;;;;22.25;48.18;100812.31;16103980;19;130320;-60
2023/08/27 06:14:45;;;;;;;0.80;0.30;;;;;;;22.35;48.12;100814.28;16099700;19;130595;-61
2023/08/27 06:20:07;;;;;;;4.05;0.50;;;;;;;22.43;47.77;100816.53;16104314;19;130036;-62
2023/08/27 06:25:34;;;;;;;3.42;0.40;;;;;;;22.52;47.88;100811.25;16110521;19;129304;-62
2023/08/27 06:30:56;;;;;;;2.22;0.60;;;;;;;22.59;47.76;100808.22;16107158;19;130368;-61
2023/08/27 06:36:18;;;;;;;6.10;0.43;;;;;;;22.67;47.58;100813.22;16118845;19;130122;-63
2023/08/27 06:41:41;;;;;;;3.67;0.50;;;;;;;22.72;47.69;100806.81;16123741;19;129840;-62
2023/08/27 06:47:03;;;;;;;1.33;0.40;;;;;;;22.78;47.30;100810.44;16116954;19;130008;-62
2023/08/27 06:52:26;;;;;;;1.27;0.55;;;;;;;22.83;47.41;100818.81;16122301;19;130860;-63
2023/08/27 06:57:48;;;;;;;4.53;0.70;;;;;;;22.86;47.51;100818.28;16123578;19;130802;-62
2023/08/27 07:03:10;;;;;;;3.03;0.70;;;;;;;22.86;46.97;100823.84;16118343;19;130329;-60
2023/08/27 07:08:32;;;;;;;4.50;1.00;;;;;;;22.89;47.34;100831.69;16111073;19;130968;-60
2023/08/27 07:13:54;;;;;;;4.22;0.73;;;;;;;22.93;47.20;100835.59;16111056;19;130288;-60
2023/08/27 07:19:16;;;;;;;9.23;1.20;;;;;;;22.94;46.98;100837.28;16109726;19;131766;-61
2023/08/27 07:24:38;;;;;;;12.05;1.02;;;;;;;22.99;47.28;100825.28;16116987;19;130348;-62
2023/08/27 07:30:00;;;;;;;13.35;1.17;;;;;;;23.00;47.61;100825.03;16111873;19;134776;-63
2023/08/27 07:35:22;;;;;;;5.22;1.05;;;;;;;23.03;47.35;100821.66;16115901;19;130975;-61
2023/08/27 07:40:45;;;;;;;6.05;1.05;;;;;;;23.09;47.16;100813.28;16114873;19;131109;-61
2023/08/27 07:46:07;;;;;;;12.35;1.35;;;;;;;23.09;46.79;100816.06;16112959;19;131324;-63
2023/08/27 07:51:30;;;;;;;5.20;0.82;;;;;;;23.15;46.90;100813.00;16113700;19;130112;-64
2023/08/27 07:56:52;;;;;;;5.75;1.20;;;;;;;23.19;46.70;100805.75;16111329;19;130108;-62
2023/08/27 08:02:14;;;;;;;6.88;0.90;;;;;;;23.21;46.42;100811.03;16114600;19;130149;-63
2023/08/27 08:07:36;;;;;;;5.90;1.20;;;;;;;23.24;46.20;100812.44;16103748;19;130156;-63
2023/08/27 08:12:57;;;;;;;5.22;1.05;;;;;;;23.20;46.06;100809.38;16112047;19;130679;-63
2023/08/27 08:18:19;;;;;;;5.53;1.02;;;;;;;23.20;46.06;100806.56;16107148;19;130974;-63
2023/08/27 08:23:42;;;;;;;7.35;1.38;;;;;;;23.19;46.27;100816.06;16107985;19;130945;-63
2023/08/27 08:29:04;;;;;;;3.72;0.90;;;;;;;23.17;46.05;100830.31;16105595;19;130006;-62
2023/08/27 08:34:29;;;;;;;5.28;1.02;;;;;;;23.16;45.77;100834.22;16107051;19;131329;-61
2023/08/27 08:39:50;;;;;;;4.70;1.15;;;;;;;23.13;45.95;100834.75;16113551;19;131088;-61
2023/08/27 08:45:34;;;;;;;5.93;1.25;;;;;;;23.12;46.03;100833.09;16112142;19;130146;-59
2023/08/27 08:50:58;;;;;;;2.83;0.90;;;;;;;23.10;45.52;100831.72;16119495;19;129756;-61
2023/08/27 08:56:33;;;;;;;4.88;1.10;;;;;;;23.06;45.83;100831.44;16111592;19;133036;-61
2023/08/27 09:01:55;;;;;;;3.27;1.00;;;;;;;23.04;46.00;100828.91;16110321;19;129554;-61
2023/08/27 09:07:18;;;;;;;3.17;0.90;;;;;;;23.09;45.39;100819.69;16112247;19;133650;-59
2023/08/27 09:12:41;;;;;;;3.40;0.85;;;;;;;23.07;44.99;100816.38;16165903;19;130821;-60
2023/08/27 09:18:04;;;;;;;3.97;1.10;;;;;;;23.04;45.45;100814.94;16189544;19;129457;-60
2023/08/27 09:23:26;;;;;;;3.28;1.10;;;;;;;22.99;45.48;100819.69;16190621;19;130725;-61
2023/08/27 09:28:49;;;;;;;5.47;0.95;;;;;;;22.99;45.45;100801.03;16191990;19;129403;-60
2023/08/27 09:34:13;;;;;;;4.05;1.02;;;;;;;23.00;45.08;100796.25;16189009;19;128146;-60
2023/08/27 09:39:39;;;;;;;4.67;1.00;;;;;;;22.99;45.07;100789.00;16183918;19;130114;-60
2023/08/27 09:45:01;;;;;;;2.90;0.80;;;;;;;23.00;45.00;100788.75;16165278;19;129555;-60
2023/08/27 09:50:28;;;;;;;4.05;0.90;;;;;;;23.03;44.77;100771.41;16139806;19;130352;-61
2023/08/27 09:55:51;;;;;;;2.25;0.77;;;;;;;23.03;44.57;100774.22;16136374;19;129923;-61
2023/08/27 10:01:13;;;;;;;2.10;0.70;;;;;;;23.01;44.82;100770.91;16132353;19;131335;-61
2023/08/27 10:06:36;;;;;;;2.58;1.17;;;;;;;23.02;44.88;100780.09;16135421;19;129100;-61
2023/08/27 10:11:58;;;;;;;3.45;0.60;;;;;;;23.00;44.67;100785.09;16149605;19;131470;-60
2023/08/27 10:17:23;;;;;;;4.00;0.80;;;;;;;22.97;44.48;100785.66;16148478;19;129169;-60
2023/08/27 10:22:49;;;;;;;4.95;1.00;;;;;;;22.94;44.46;100778.69;16123468;19;130871;-61
2023/08/27 10:28:11;;;;;;;4.22;0.88;;;;;;;22.93;44.42;100774.22;16120997;19;130455;-60
2023/08/27 10:33:34;;;;;;;3.05;0.80;;;;;;;22.89;44.17;100773.91;16125539;19;130120;-60
2023/08/27 10:38:59;;;;;;;2.42;0.75;;;;;;;22.85;44.58;100802.66;16118951;19;131505;-61
2023/08/27 10:44:21;;;;;;;;;;;;;;;22.79;44.63;100823.28;16117493;19;131717;-60
2023/08/27 10:49:48;;;;;;;4.53;0.90;;;;;;;22.78;44.47;100832.75;16118633;19;129503;-61
2023/08/27 10:55:12;;;;;;;4.07;0.90;;;;;;;22.76;44.70;100832.22;16119399;19;129604;-60
2023/08/27 11:01:00;;;;;;;8.98;0.90;;;;;;;22.74;44.25;100827.75;16119176;19;130509;-61
2023/08/27 11:06:45;;;;;;;3.72;0.70;;;;;;;22.79;44.60;100840.00;16118733;19;131507;-60
2023/08/27 11:12:26;;;;;;;10.82;1.13;;;;;;;22.82;44.56;100817.16;16121751;19;130603;-60
2023/08/27 11:17:49;;;;;;;8.93;1.27;;;;;;;22.80;44.51;100803.50;16111499;19;130498;-61
2023/08/27 11:23:11;;;;;;;2.72;0.80;;;;;;;22.82;44.45;100814.38;16115929;19;130065;-61
2023/08/27 11:28:33;;;;;;;4.68;0.93;;;;;;;22.85;43.70;100811.03;16114893;19;130073;-53
2023/08/27 11:33:56;;;;;;;7.95;0.68;;;;;;;22.89;43.84;100801.00;16119032;19;131012;-58
2023/08/27 11:39:18;;;;;;;2.78;0.70;;;;;;;22.93;43.40;100801.31;16114535;19;129948;-60
2023/08/27 11:44:55;;;;;;;6.22;0.75;;;;;;;22.97;42.99;100820.00;16121293;19;130407;-62
2023/08/27 11:50:17;;;;;;;7.13;1.02;;;;;;;22.98;42.86;100810.50;16135457;19;131131;-59
2023/08/27 11:55:40;;;;;;;5.93;1.05;;;;;;;22.99;42.90;100817.75;16122130;19;130372;-58
2023/08/27 12:01:03;;;;;;;3.53;0.60;;;;;;;22.99;42.81;100864.34;16131236;19;129543;-60
2023/08/27 12:06:28;;;;;;;4.30;0.88;;;;;;;22.96;43.08;100856.50;16123795;19;131164;-59
2023/08/27 12:11:50;;;;;;;3.70;0.57;;;;;;;22.93;43.22;100868.25;16126529;19;129627;-60
2023/08/27 12:17:12;;;;;;;4.88;0.65;;;;;;;22.90;43.75;100886.34;16117523;19;129702;-59
2023/08/27 12:22:44;;;;;;;3.75;0.70;;;;;;;22.87;43.77;100892.47;16113095;19;130703;-58
2023/08/27 12:28:06;;;;;;;2.55;0.73;;;;;;;22.84;44.00;100887.44;16126714;19;130421;-60
2023/08/27 12:33:39;;;;;;;2.38;0.60;;;;;;;22.83;43.94;100903.31;16131737;19;130573;-57
2023/08/27 12:39:02;;;;;;;1.75;0.60;;;;;;;22.83;44.02;100913.66;16126770;19;131895;-59
2023/08/27 12:44:24;;;;;;;1.92;0.52;;;;;;;22.82;43.97;100917.56;16124770;19;130001;-57
2023/08/27 12:49:46;;;;;;;7.55;0.80;;;;;;;22.84;43.87;100906.97;16113079;19;131283;-57
2023/08/27 12:55:08;;;;;;;5.47;0.80;;;;;;;22.85;44.00;100901.09;16115021;19;130424;-60
2023/08/27 13:00:30;;;;;;;6.88;0.80;;;;;;;22.88;43.87;100894.16;16118937;19;130813;-61
2023/08/27 13:05:55;;;;;;;4.95;0.80;;;;;;;22.92;43.98;100891.69;16118441;19;129850;-62
2023/08/27 13:11:17;;;;;;;5.50;0.90;;;;;;;22.94;43.77;100887.50;16111551;19;130993;-63
2023/08/27 13:16:39;;;;;;;6.32;0.80;;;;;;;22.97;43.74;100892.53;16109536;19;129705;-56
2023/08/27 13:22:01;;;;;;;4.07;0.95;;;;;;;22.98;43.70;100887.75;16109922;19;129751;-61
2023/08/27 13:27:23;;;;;;;3.85;0.60;;;;;;;22.97;43.58;100881.38;16110563;19;129785;-63
2023/08/27 13:32:45;;;;;;;5.57;0.90;;;;;;;22.99;43.63;100884.72;16118261;19;133509;-60
2023/08/27 13:38:07;;;;;;;1.77;0.68;;;;;;;23.00;43.52;100891.97;16113241;19;129700;-59
2023/08/27 13:43:30;;;;;;;3.10;0.52;;;;;;;23.01;43.52;100895.59;16112255;19;131107;-63
2023/08/27 13:48:52;;;;;;;3.72;0.70;;;;;;;22.99;43.73;100911.75;16111377;19;129631;-60
2023/08/27 13:54:14;;;;;;;2.78;0.70;;;;;;;22.99;43.67;100909.81;16112152;19;129268;-59
2023/08/27 13:59:36;;;;;;;6.75;1.08;;;;;;;23.02;43.86;100895.31;16112842;19;130680;-60
2023/08/27 14:04:58;;;;;;;7.57;0.82;;;;;;;23.03;43.82;100894.19;16113519;19;131071;-57
2023/08/27 14:10:20;;;;;;;6.40;0.88;;;;;;;23.03;43.65;100907.31;16112510;19;133087;-59
2023/08/27 14:15:42;;;;;;;2.90;0.70;;;;;;;23.03;44.02;100907.31;16107414;19;130603;-58
2023/08/27 14:21:04;;;;;;;3.92;0.75;;;;;;;23.01;43.99;100906.75;16111188;19;130034;-59
2023/08/27 14:26:29;;;;;;;4.53;0.80;;;;;;;23.00;44.01;100919.88;16106932;19;131618;-59
2023/08/27 14:31:51;;;;;;;2.25;0.65;;;;;;;23.00;43.92;100905.94;16107967;19;129558;-58
2023/08/27 14:37:13;;;;;;;3.95;0.73;;;;;;;23.02;44.06;100889.72;16106334;19;129323;-58
2023/08/27 14:42:35;;;;;;;5.43;0.80;;;;;;;23.01;44.24;100893.66;16108247;19;129889;-57
2023/08/27 14:47:57;;;;;;;5.30;0.85;;;;;;;23.01;44.20;100893.66;16109982;19;130465;-60
2023/08/27 14:53:20;;;;;;;4.05;0.63;;;;;;;23.00;44.34;100891.13;16118312;19;131106;-60
2023/08/27 14:58:48;;;;;;;8.50;1.15;;;;;;;23.00;44.05;100880.81;16118733;19;130977;-59
2023/08/27 15:04:09;;;;;;;1.55;0.60;;;;;;;22.99;44.00;100881.94;16124189;19;130618;-59
2023/08/27 15:09:31;;;;;;;2.75;0.77;;;;;;;22.99;44.28;100879.13;16122569;19;130361;-60
2023/08/27 15:14:53;;;;;;;10.25;0.73;;;;;;;22.97;44.13;100875.78;16125045;19;130210;-59
2023/08/27 15:20:15;;;;;;;5.65;0.80;;;;;;;22.97;44.39;100895.31;16124734;19;129710;-59
2023/08/27 15:25:37;;;;;;;2.70;0.93;;;;;;;22.99;44.20;100887.50;16124027;19;131002;-62
2023/08/27 15:31:00;;;;;;;3.50;0.70;;;;;;;23.00;44.46;100897.56;16121317;19;130243;-58
2023/08/27 15:36:22;;;;;;;7.35;0.75;;;;;;;23.01;44.40;100904.81;16124379;19;129700;-60
2023/08/27 15:41:47;;;;;;;2.28;0.80;;;;;;;23.02;44.46;100900.06;16124079;19;129779;-61
2023/08/27 15:47:09;;;;;;;3.17;0.63;;;;;;;23.02;44.58;100900.88;16118229;19;129306;-58
2023/08/27 15:52:32;;;;;;;6.35;0.95;;;;;;;23.03;44.64;100905.34;16120940;19;130003;-60
2023/08/27 15:57:54;;;;;;;4.30;0.80;;;;;;;23.01;44.47;100910.41;16123187;19;131503;-59
2023/08/27 16:03:16;;;;;;;4.60;0.82;;;;;;;23.00;44.72;100908.72;16113652;19;130464;-60
2023/08/27 16:08:38;;;;;;;3.47;0.80;;;;;;;23.01;44.66;100915.97;16119758;19;129641;-59
2023/08/27 16:14:01;;;;;;;4.00;0.68;;;;;;;22.98;44.61;100919.31;16118880;19;130300;-59
2023/08/27 16:19:22;;;;;;;1.85;0.70;;;;;;;22.97;44.44;100917.63;16116315;19;130610;-59
2023/08/27 16:24:44;;;;;;;4.25;1.38;;;;;;;22.95;44.70;100922.66;16113780;19;129890;-57
2023/08/27 16:30:07;;;;;;;6.82;3.67;;;;;;;22.95;44.52;100928.22;16116212;19;130983;-59
2023/08/27 16:35:29;;;;;;;21.55;10.70;;;;;;;22.94;44.48;100926.53;16104890;19;131610;-60
2023/08/27 16:40:51;;;;;;;34.75;15.45;;;;;;;22.92;44.70;100919.56;16103706;19;129408;-62
2023/08/27 16:46:13;;;;;;;35.42;16.38;;;;;;;22.90;44.78;100925.41;16114230;19;129542;-60
2023/08/27 16:51:35;;;;;;;33.95;14.80;;;;;;;22.91;44.75;100941.03;16119015;19;130018;-60
2023/08/27 16:56:57;;;;;;;26.90;13.68;;;;;;;22.91;44.85;100935.47;16119158;19;130834;-60
2023/08/27 17:02:19;;;;;;;25.75;13.00;;;;;;;22.89;44.65;100934.88;16115561;19;130038;-60
2023/08/27 17:07:41;;;;;;;29.52;12.93;;;;;;;22.88;44.51;100928.44;16114170;19;129888;-60
2023/08/27 17:13:03;;;;;;;26.05;12.90;;;;;;;22.88;44.73;100938.78;16116512;19;130621;-60
2023/08/27 17:18:25;;;;;;;23.00;12.55;;;;;;;22.86;44.77;100935.44;16112119;19;134906;-60
2023/08/27 17:23:47;;;;;;;22.25;11.25;;;;;;;22.85;45.04;100947.69;16114251;19;129707;-60
2023/08/27 17:29:09;;;;;;;21.85;10.65;;;;;;;22.83;45.27;100952.72;16113821;19;130996;-59
2023/08/27 17:34:31;;;;;;;18.77;9.57;;;;;;;22.82;44.72;100967.75;16109294;19;130613;-61
2023/08/27 17:39:53;;;;;;;20.58;7.10;;;;;;;22.77;44.71;100964.97;16108145;19;129906;-59
2023/08/27 17:45:16;;;;;;;14.68;7.03;;;;;;;22.76;44.70;100971.66;16108492;19;131796;-62
2023/08/27 17:50:38;;;;;;;8.05;4.95;;;;;;;22.74;43.51;100972.78;16113817;19;129824;-63
2023/08/27 17:56:00;;;;;;;14.32;4.70;;;;;;;22.77;43.62;100976.97;16117780;19;131122;-61
2023/08/27 18:01:22;;;;;;;10.73;3.95;;;;;;;22.81;43.61;100977.25;16111847;19;130384;-61
2023/08/27 18:06:44;;;;;;;10.43;4.47;;;;;;;22.82;44.08;100990.09;16106978;19;131010;-62
2023/08/27 18:12:06;;;;;;;7.43;3.22;;;;;;;22.80;43.75;100993.16;16102529;19;130870;-61
2023/08/27 18:17:28;;;;;;;11.10;3.22;;;;;;;22.77;44.28;101001.22;16103230;19;132267;-61
2023/08/27 18:22:50;;;;;;;6.63;2.83;;;;;;;22.74;44.22;101000.66;16096498;19;132747;-62
2023/08/27 18:28:13;;;;;;;5.75;2.90;;;;;;;22.72;44.36;101000.09;16111094;19;130920;-62
2023/08/27 18:33:37;;;;;;;7.88;2.40;;;;;;;22.68;44.83;101010.09;16119615;19;131075;-62
2023/08/27 18:39:00;;;;;;;7.18;2.17;;;;;;;22.68;44.94;101018.47;16119618;19;130505;-62
2023/08/27 18:44:22;;;;;;;3.90;2.13;;;;;;;22.66;44.64;101023.47;16122837;19;131138;-62
2023/08/27 18:49:44;;;;;;;6.60;2.75;;;;;;;22.65;44.47;101026.53;16127287;19;129287;-61
2023/08/27 18:55:06;;;;;;;5.10;1.85;;;;;;;22.63;44.91;101026.84;16123521;19;130124;-65
2023/08/27 19:00:28;;;;;;;4.85;2.15;;;;;;;22.62;44.84;101030.72;16118307;19;130297;-67
2023/08/27 19:05:50;;;;;;;7.53;1.80;;;;;;;22.59;45.03;101042.41;16127651;19;130415;-66
2023/08/27 19:11:12;;;;;;;4.75;1.55;;;;;;;22.57;45.08;101048.28;16121745;19;130022;-65
2023/08/27 19:16:34;;;;;;;5.80;1.65;;;;;;;22.57;45.19;101058.56;16123467;19;129888;-68
2023/08/27 19:21:56;;;;;;;5.60;2.03;;;;;;;22.54;45.21;101057.16;16119236;19;130685;-67
2023/08/27 19:27:18;;;;;;;5.15;1.83;;;;;;;22.53;45.25;101060.22;16114750;19;131708;-64
2023/08/27 19:32:40;;;;;;;4.55;1.30;;;;;;;22.51;45.39;101066.06;16120323;19;131256;-60
2023/08/27 19:38:05;;;;;;;3.63;1.40;;;;;;;22.50;45.38;101075.53;16116774;19;129726;-59
2023/08/27 19:43:28;;;;;;;20.08;2.60;;;;;;;22.49;45.80;101078.59;16118881;19;130046;-62
2023/08/27 19:48:50;;;;;;;10.40;1.65;;;;;;;22.50;45.67;101085.88;16123211;19;130999;-61
2023/08/27 19:54:13;;;;;;;17.25;1.88;;;;;;;22.50;45.63;101086.69;16120393;19;129194;-62
2023/08/27 19:59:34;;;;;;;9.23;1.80;;;;;;;22.52;45.27;101089.22;16120020;19;130441;-61
2023/08/27 20:04:57;;;;;;;9.85;1.33;;;;;;;22.53;45.82;101085.31;16118299;19;129908;-61
2023/08/27 20:10:19;;;;;;;13.18;1.55;;;;;;;22.54;45.77;101095.34;16120719;19;131230;-61
2023/08/27 20:15:41;;;;;;;14.35;1.50;;;;;;;22.55;45.71;101091.44;16124612;19;129569;-61
2023/08/27 20:21:07;;;;;;;7.65;1.35;;;;;;;22.55;45.75;101085.88;16113352;19;131019;-61
2023/08/27 20:26:30;;;;;;;3.80;1.38;;;;;;;22.54;45.78;101098.13;16111623;19;129885;-58
2023/08/27 20:31:52;;;;;;;4.43;1.45;;;;;;;22.54;46.08;101099.00;16109443;19;129870;-61
2023/08/27 20:37:14;;;;;;;27.27;3.85;;;;;;;22.54;45.51;101112.94;16113066;19;129892;-61
2023/08/27 20:42:37;;;;;;;12.40;2.10;;;;;;;22.52;46.00;101114.31;16109024;19;129443;-61
2023/08/27 20:47:59;;;;;;;11.90;1.30;;;;;;;22.54;45.99;101123.22;16114813;19;130899;-61
2023/08/27 20:53:21;;;;;;;5.75;1.33;;;;;;;22.52;45.86;101137.44;16111551;19;130551;-61
2023/08/27 20:58:43;;;;;;;11.10;1.17;;;;;;;22.52;45.88;101131.03;16114917;19;130496;-61
2023/08/27 21:04:06;;;;;;;8.93;1.30;;;;;;;22.51;45.94;101130.19;16111718;19;129782;-60
2023/08/27 21:09:27;;;;;;;5.63;1.40;;;;;;;22.50;45.95;101122.09;16113465;19;130523;-60
2023/08/27 21:14:49;;;;;;;5.78;1.00;;;;;;;22.50;46.17;101122.09;16112638;19;129246;-60
2023/08/27 21:20:11;;;;;;;5.18;1.08;;;;;;;22.49;46.16;101135.19;16109081;19;131703;-60
2023/08/27 21:25:33;;;;;;;6.43;1.35;;;;;;;22.49;45.99;101126.00;16112644;19;130696;-59
2023/08/27 21:30:55;;;;;;;13.38;1.67;;;;;;;22.48;45.83;101124.31;16109529;19;131690;-61
2023/08/27 21:36:26;;;;;;;14.80;1.48;;;;;;;22.47;46.02;101119.84;16102551;19;131276;-61
2023/08/27 21:41:49;;;;;;;9.50;1.48;;;;;;;22.46;46.60;101124.59;16104447;19;130884;-61
2023/08/27 21:47:11;;;;;;;12.60;1.60;;;;;;;22.44;46.64;101122.06;16101003;19;129550;-61
2023/08/27 21:52:33;;;;;;;10.68;1.30;;;;;;;22.42;46.07;101120.66;16102397;19;130403;-61
2023/08/27 21:57:55;;;;;;;9.00;1.40;;;;;;;22.40;46.36;101122.88;16104966;19;130547;-61
2023/08/27 22:03:18;;;;;;;9.23;1.23;;;;;;;22.38;46.48;101120.34;16111818;19;129461;-61
2023/08/27 22:08:40;;;;;;;9.95;1.73;;;;;;;22.38;46.37;101141.78;16122726;19;129949;-61
2023/08/27 22:14:03;;;;;;;7.30;0.80;;;;;;;22.34;46.70;101137.88;16122533;19;129560;-61
2023/08/27 22:19:27;;;;;;;9.38;1.10;;;;;;;22.33;46.71;101142.59;16119773;19;129763;-61
2023/08/27 22:24:49;;;;;;;5.13;1.05;;;;;;;22.32;46.65;101143.72;16117830;19;129519;-61
2023/08/27 22:30:11;;;;;;;7.20;0.93;;;;;;;22.30;46.49;101131.97;16124349;19;130959;-61
2023/08/27 22:35:33;;;;;;;5.22;0.88;;;;;;;22.28;46.77;101137.81;16122508;19;129457;-61
2023/08/27 22:40:55;;;;;;;9.18;1.27;;;;;;;22.28;46.89;101131.41;16124139;19;130220;-61
2023/08/27 22:46:17;;;;;;;5.78;1.10;;;;;;;22.26;46.55;101136.44;16121086;19;130207;-60
2023/08/27 22:51:39;;;;;;;3.35;0.90;;;;;;;22.25;46.90;101151.47;16121395;19;129742;-61
2023/08/27 22:57:01;;;;;;;3.33;1.00;;;;;;;22.23;46.92;101151.72;16116827;19;129477;-61
2023/08/27 23:02:23;;;;;;;5.38;1.13;;;;;;;22.22;46.81;101144.44;16116335;19;129756;-61
2023/08/27 23:07:45;;;;;;;5.43;1.40;;;;;;;22.21;46.80;101141.94;16118763;19;129945;-61
2023/08/27 23:13:07;;;;;;;3.05;1.00;;;;;;;22.20;46.68;101143.00;16117242;19;131400;-61
2023/08/27 23:18:29;;;;;;;4.13;0.90;;;;;;;22.19;47.17;101155.25;16115528;19;130615;-61
2023/08/27 23:23:53;;;;;;;2.90;0.82;;;;;;;22.18;46.56;101159.16;16117622;19;131006;-63
2023/08/27 23:29:16;;;;;;;6.10;0.98;;;;;;;22.17;46.89;101158.31;16118240;19;131787;-61
2023/08/27 23:34:37;;;;;;;5.40;0.90;;;;;;;22.16;46.90;101144.63;16115589;19;130423;-61
2023/08/27 23:39:59;;;;;;;3.08;0.85;;;;;;;22.15;46.96;101154.97;16114820;19;130183;-61
2023/08/27 23:45:21;;;;;;;4.60;0.80;;;;;;;22.13;46.99;101155.22;16116592;19;130301;-60
2023/08/27 23:50:43;;;;;;;2.47;0.80;;;;;;;22.14;47.18;101139.34;16117640;19;129857;-62
2023/08/27 23:56:06;;;;;;;3.95;0.95;;;;;;;22.12;47.02;101127.63;16117273;19;136016;-62
